• Join FlightAware (Why Join?)
  • Login
  • US Flag 
04:48AM EDT


 

Airport Tracker/Info


-or-


 

Live Flight TrackerFlight Track Log ✈ DAL6044 ✈ 09-Oct-2013 ✈ KCLE - KLGA

Flight Track Log - Related Links

Times and Time Zones

All times are in EDT time to prevent confusion due to time zone crossing. See the DAL6044 flight status page for this flight to view local times or setup timezone preferences in your user account.

Time Position Orientation Groundspeed Altitude Reporting Facility
EDT Latitude Longitude Course Direction KTS MPH feet Rate Location/Type
07:50PM 41.4261 -81.8364 51° Northeast 187 215 2,000  Level Cleveland Center
07:51PM 41.4447 -81.8200 33° Northeast 188 216 3,000 2,280 Climbing Cleveland Center
07:51PM 41.4642 -81.8092 23° Northeast 195 224 3,900 2,460 Climbing Cleveland Center
07:52PM 41.5003 -81.7803 31° Northeast 214 246 5,600 2,280 Climbing Cleveland Center
07:53PM 41.5614 -81.7283 32° Northeast 253 291 8,100 2,400 Climbing Cleveland Center
07:54PM 41.3775 -81.1756 100° East  Level Estimated
07:54PM 41.6206 -81.6617 40° Northeast 273 314 10,600  Level Cleveland Center
07:55PM 41.3706 -81.0398 106° East  Level Estimated
07:55PM 41.6581 -81.5522 65° Northeast 298 343 12,500  Level Cleveland Center
07:56PM 41.4353 -80.9345 51° Northeast  Level FlightAware Approximate
07:56PM 41.6431 -81.4308 99° East 325 374 13,800  Level Cleveland Center
07:57PM 41.6283 -81.2989 98° East 350 403 15,000 1,200 Climbing Cleveland Center
07:58PM 41.6125 -81.1631 99° East 364 419 16,300 1,200 Climbing Cleveland Center
07:59PM 41.5956 -81.0244 99° East 372 428 17,500 1,020 Climbing Cleveland Center
08:00PM 41.5797 -80.8831 98° East 379 436 18,500 1,020 Climbing Cleveland Center
08:01PM 41.5619 -80.7400 99° East 386 444 19,700 1,200 Climbing Cleveland Center
08:02PM 41.5442 -80.5933 99° East 395 455 21,000 1,200 Climbing Cleveland Center
08:03PM 41.5250 -80.4442 100° East 402 463 22,200 1,200 Climbing Cleveland Center
08:04PM 41.5061 -80.2936 99° East 407 468 23,500 1,260 Climbing Cleveland Center
08:05PM 41.4833 -80.1150 100° East 408 470 24,900 1,200 Climbing Cleveland Center
08:06PM 41.4664 -79.9786 99° East 406 467 26,000 1,140 Climbing Cleveland Center
08:07PM 41.4472 -79.8306 100° East 407 468 27,300 1,260 Climbing Cleveland Center
08:08PM 41.4253 -79.6564 99° East 401 461 28,700 1,260 Climbing Cleveland Center
08:09PM 41.4050 -79.5122 101° East 399 459 30,000 1,080 Climbing Cleveland Center
08:10PM 41.3875 -79.3800 100° East 401 461 31,000 480 Climbing Cleveland Center
08:11PM 41.3656 -79.2131 100° East 416 479 31,000  Level Cleveland Center
08:12PM 41.3439 -79.0508 100° East 441 507 31,000  Level Cleveland Center
08:13PM 41.3194 -78.8769 101° East 430 495 31,000  Level Cleveland Center
08:14PM 41.2992 -78.7261 100° East 419 482 31,000  Level Cleveland Center
08:15PM 41.2786 -78.5783 100° East 409 471 31,000  Level Cleveland Center
08:16PM 41.2567 -78.4303 101° East 409 471 31,000  Level Cleveland Center
08:17PM 41.2364 -78.2836 100° East 406 467 31,000  Level Cleveland Center
08:18PM 41.2167 -78.1553 102° East 407 468 31,000  Level New York Center
08:19PM 41.1983 -78.0125 100° East 418 481 31,000  Level New York Center
08:20PM 41.1800 -77.8672 99° East 408 470 31,000 -180 Level New York Center
08:21PM 41.1633 -77.7275 99° East 393 452 30,700 -900 Descending New York Center
08:22PM 41.1464 -77.5881 99° East 387 445 29,200 -1,560 Descending New York Center
08:23PM 41.1272 -77.4483 100° East 382 440 27,600 -1,320 Descending New York Center
08:24PM 41.1092 -77.3253 101° East 382 440 26,600 -1,020 Descending New York Center
08:25PM 41.0903 -77.1775 100° East 382 440 25,600 -1,080 Descending New York Center
08:26PM 41.0692 -77.0242 100° East 396 456 24,500 -1,440 Descending New York Center
08:27PM 41.0467 -76.8569 100° East 415 478 22,800 -1,620 Descending New York Center
08:28PM 41.0289 -76.7150 99° East 408 470 21,300 -1,500 Descending New York Center
08:29PM 41.0019 -76.5861 105° East 382 440 19,800 -1,500 Descending New York Center
08:30PM 40.9725 -76.4600 107° East 363 418 18,300 -900 Descending New York Center
08:31PM 40.9467 -76.3506 107° East 346 398 18,000 -180 Descending New York Center
08:32PM 40.9169 -76.2247 107° East 352 405 18,000  Level New York Center
08:33PM 40.8836 -76.0903 108° East 352 405 18,000 -240 Level New York Center
08:34PM 40.8589 -75.9867 107° East 357 411 17,600 -1,320 Descending New York Center
08:35PM 40.8253 -75.8525 108° East 352 405 15,400 -2,100 Descending New York Center
08:36PM 40.7986 -75.7408 107° East 335 386 13,400 -1,200 Descending New York Center
08:37PM 40.7683 -75.6181 108° East 324 373 13,000 -300 Descending New York Center
08:38PM 40.7333 -75.5089 113° Southeast 311 358 12,900 -600 Descending New York Center
08:39PM 40.6981 -75.3997 113° Southeast 323 372 11,900 -1,020 Descending New York Center
08:40PM 40.6606 -75.2878 114° Southeast 323 372 10,900 -900 Descending New York Center
08:41PM 40.6253 -75.1758 113° Southeast 323 372 10,100 -420 Descending New York Center
08:42PM 40.5875 -75.0669 115° Southeast 329 379 10,100 -60 Level New York Center
08:43PM 40.5539 -74.9611 113° Southeast 329 379 10,000  Descending New York Center
08:44PM 40.5203 -74.8469 111° Southeast 329 379 10,100  Climbing New York Center
08:45PM 40.4808 -74.7219 112° Southeast 336 387 10,100 -60 Level New York Center
08:46PM 40.4500 -74.6000 108° East 301 346 10,000 -300 Descending New York TRACON
08:47PM 40.4167 -74.5333 123° Southeast 230 265 9,500 -960 Descending New York TRACON
08:48PM 40.4000 -74.4500 105° East 221 254 8,100 -1,200 Descending New York TRACON
08:49PM 40.4167 -74.3667 75° East 227 261 7,100 -540 Descending New York TRACON
08:50PM 40.4333 -74.2833 75° East 231 266 7,100  Level New York TRACON
08:51PM 40.4667 -74.2000 62° Northeast 224 258 7,100 -60 Level New York TRACON
08:52PM 40.4833 -74.1333 72° East 224 258 7,000 -900 Descending New York TRACON
08:53PM 40.5333 -74.0833 37° Northeast 230 265 5,300 -1,380 Descending New York TRACON
08:54PM 40.5833 -74.0333 37° Northeast 215 247 4,200 -1,020 Descending New York TRACON
08:55PM 40.6333 -74.0000 27° Northeast 187 215 3,300 -900 Descending New York TRACON
08:56PM 40.6667 -73.9667 37° Northeast 164 189 2,500 -900 Descending New York TRACON
08:57PM 40.7000 -73.9333 37° Northeast 135 155 1,600 -780 Descending New York TRACON
08:58PM 40.7333 -73.9167 21° North 134 154 900 -720 Descending New York TRACON